createdAt,value
2023-01-17T00:02:31.585Z,92.39
2023-01-17T00:07:53.390Z,92.41
2023-01-17T00:13:03.686Z,92.54
2023-01-17T00:18:05.487Z,92.69
2023-01-17T00:23:26.816Z,92.76
2023-01-17T00:28:29.612Z,92.89
2023-01-17T00:33:32.880Z,93.04
2023-01-17T00:38:36.135Z,92.74
2023-01-17T00:43:57.086Z,93.09
2023-01-17T00:49:20.387Z,92.99
2023-01-17T00:54:41.047Z,92.92
2023-01-17T01:00:01.673Z,92.99
2023-01-17T01:05:23.018Z,92.75
2023-01-17T01:10:43.541Z,92.69
2023-01-17T01:16:04.150Z,92.20
2023-01-17T01:21:35.405Z,92.62
2023-01-17T01:26:55.940Z,93.45
2023-01-17T01:32:16.461Z,93.68
2023-01-17T01:37:18.203Z,94.05
2023-01-17T01:42:19.903Z,94.08
2023-01-17T01:47:24.707Z,93.10
2023-01-17T01:52:28.072Z,92.78
2023-01-17T01:57:32.017Z,92.42
2023-01-17T02:02:34.905Z,91.25
2023-01-17T02:07:41.595Z,90.42
2023-01-17T02:12:44.737Z,90.25
2023-01-17T02:17:55.393Z,90.03
2023-01-17T02:23:01.493Z,89.88
2023-01-17T02:28:31.643Z,90.08
2023-01-17T02:33:40.439Z,89.49
2023-01-17T02:38:48.425Z,88.85
2023-01-17T02:43:51.414Z,88.80
2023-01-17T02:48:54.829Z,88.86
2023-01-17T02:53:56.556Z,88.99
2023-01-17T02:59:14.765Z,89.80
2023-01-17T03:04:21.613Z,90.03
2023-01-17T03:09:24.733Z,90.57
2023-01-17T03:14:30.254Z,91.13
2023-01-17T03:19:32.178Z,91.35
2023-01-17T03:24:33.808Z,91.31
2023-01-17T03:29:35.532Z,91.32
2023-01-17T03:34:37.263Z,91.22
2023-01-17T03:39:39.026Z,91.18
2023-01-17T03:44:40.839Z,91.32
2023-01-17T03:49:43.501Z,91.13
2023-01-17T03:54:45.383Z,91.06
2023-01-17T03:59:48.770Z,90.70
2023-01-17T04:04:51.168Z,90.72
2023-01-17T04:09:53.066Z,90.54
2023-01-17T04:14:54.722Z,90.27
2023-01-17T04:19:56.451Z,90.76
2023-01-17T04:24:58.821Z,90.92
2023-01-17T04:30:00.775Z,90.93
2023-01-17T04:35:04.510Z,90.80
2023-01-17T04:40:06.466Z,90.96
2023-01-17T04:45:08.529Z,91.07
2023-01-17T04:50:10.884Z,90.59
2023-01-17T04:55:12.866Z,90.41
2023-01-17T05:00:14.942Z,90.77
2023-01-17T05:05:16.750Z,91.25
2023-01-17T05:10:18.406Z,91.61
2023-01-17T05:15:20.251Z,92.38
2023-01-17T05:20:23.241Z,92.31
2023-01-17T05:25:26.101Z,92.61
2023-01-17T05:30:28.973Z,92.57
2023-01-17T05:35:34.797Z,92.42
2023-01-17T05:40:36.562Z,92.19
2023-01-17T05:45:38.370Z,91.46
2023-01-17T05:50:40.981Z,90.81
2023-01-17T05:55:43.125Z,90.53
2023-01-17T06:00:44.907Z,90.81
2023-01-17T06:05:47.501Z,91.03
2023-01-17T06:10:50.267Z,91.11
2023-01-17T06:15:53.130Z,90.66
2023-01-17T06:20:55.155Z,90.24
2023-01-17T06:25:56.864Z,90.09
2023-01-17T06:30:59.843Z,89.88
2023-01-17T06:36:01.776Z,89.80
2023-01-17T06:41:05.695Z,89.79
2023-01-17T06:46:07.510Z,89.62
2023-01-17T06:51:09.631Z,89.15
2023-01-17T06:56:11.709Z,88.79
2023-01-17T07:01:13.550Z,88.70
2023-01-17T07:06:15.751Z,88.49
2023-01-17T07:11:17.525Z,88.52
2023-01-17T07:16:19.424Z,88.12
2023-01-17T07:21:21.207Z,88.08
2023-01-17T07:26:23.044Z,87.77
2023-01-17T07:31:24.868Z,88.18
2023-01-17T07:36:26.677Z,87.86
2023-01-17T07:43:45.669Z,87.84
2023-01-17T07:48:47.222Z,88.37
2023-01-17T07:53:48.949Z,87.81
2023-01-17T07:58:50.557Z,87.85
2023-01-17T08:03:54.867Z,87.08
2023-01-17T08:08:58.964Z,86.80
2023-01-17T08:14:00.670Z,86.25
2023-01-17T08:19:02.333Z,86.09
2023-01-17T08:24:04.235Z,85.89
2023-01-17T08:29:06.460Z,85.09
2023-01-17T08:34:08.166Z,84.79
2023-01-17T08:39:10.166Z,84.53
2023-01-17T08:44:12.467Z,84.08
2023-01-17T08:49:14.305Z,83.74
2023-01-17T08:54:16.624Z,84.15
2023-01-17T08:59:18.971Z,83.81
2023-01-17T09:04:21.376Z,83.08
2023-01-17T09:09:23.501Z,82.52
2023-01-17T09:14:25.317Z,82.53
2023-01-17T09:19:28.077Z,81.66
2023-01-17T09:24:31.095Z,81.56
2023-01-17T09:29:32.704Z,80.88
2023-01-17T09:34:34.290Z,80.67
2023-01-17T09:39:35.949Z,80.29
2023-01-17T09:44:47.668Z,79.94
2023-01-17T09:49:52.225Z,79.28
2023-01-17T09:54:54.007Z,78.14
2023-01-17T10:00:14.310Z,77.79
2023-01-17T10:05:43.208Z,77.27
2023-01-17T10:11:22.703Z,75.72
2023-01-17T10:16:43.595Z,74.14
2023-01-17T10:21:59.176Z,72.23
2023-01-17T10:27:03.420Z,71.49
2023-01-17T10:32:06.121Z,71.13
2023-01-17T10:37:20.525Z,69.39
2023-01-17T10:42:34.026Z,68.93
2023-01-17T10:47:37.550Z,67.90
2023-01-17T10:52:48.506Z,66.57
2023-01-17T10:57:51.222Z,65.14
2023-01-17T11:02:53.112Z,64.32
2023-01-17T11:07:59.196Z,64.36
2023-01-17T11:13:01.289Z,63.59
2023-01-17T11:18:06.525Z,62.24
2023-01-17T11:23:18.103Z,60.14
2023-01-17T11:28:30.187Z,60.21
2023-01-17T11:33:48.138Z,59.44
2023-01-17T11:39:04.749Z,59.33
2023-01-17T11:44:24.931Z,58.81
2023-01-17T11:49:26.680Z,59.40
2023-01-17T11:54:39.135Z,60.56
2023-01-17T11:59:45.230Z,60.60
2023-01-17T12:05:17.373Z,59.50
2023-01-17T12:10:21.897Z,58.03
2023-01-17T12:15:36.055Z,56.05
2023-01-17T12:21:17.957Z,54.92
2023-01-17T12:26:34.351Z,56.40
2023-01-17T12:31:43.339Z,56.73
2023-01-17T12:37:05.452Z,56.12
2023-01-17T12:42:19.842Z,56.40
2023-01-17T12:47:21.863Z,57.56
2023-01-17T12:52:35.692Z,58.06
2023-01-17T12:57:45.201Z,57.34
2023-01-17T13:03:03.563Z,57.12
2023-01-17T13:08:34.567Z,57.57
2023-01-17T13:13:36.795Z,56.79
2023-01-17T13:18:47.016Z,55.89
2023-01-17T13:24:04.129Z,55.93
2023-01-17T13:29:27.114Z,55.78
2023-01-17T13:34:35.230Z,56.16
2023-01-17T13:40:00.381Z,55.63
2023-01-17T13:45:08.820Z,55.65
2023-01-17T13:50:36.367Z,56.13
2023-01-17T13:55:50.328Z,55.78
2023-01-17T14:00:52.457Z,55.43
2023-01-17T14:05:57.568Z,55.96
2023-01-17T14:11:10.010Z,56.44
2023-01-17T14:16:21.141Z,57.06
2023-01-17T14:21:31.597Z,57.44
2023-01-17T14:26:52.167Z,58.37
2023-01-17T14:32:02.719Z,59.23
2023-01-17T14:37:14.639Z,59.61
2023-01-17T14:42:23.666Z,60.50
2023-01-17T14:47:28.345Z,61.43
2023-01-17T14:52:30.112Z,62.29
2023-01-17T14:57:31.805Z,63.09
2023-01-17T15:02:33.841Z,64.19
2023-01-17T15:07:36.747Z,65.10
2023-01-17T15:12:38.782Z,65.87
2023-01-17T15:17:40.410Z,66.24
2023-01-17T15:22:42.351Z,66.45
2023-01-17T15:27:44.293Z,67.10
2023-01-17T15:32:51.224Z,68.01
2023-01-17T15:37:54.989Z,67.86
2023-01-17T15:43:00.937Z,67.99
2023-01-17T15:48:36.154Z,68.67
2023-01-17T15:53:41.648Z,69.68
2023-01-17T15:58:43.314Z,70.39
2023-01-17T16:03:52.546Z,71.29
2023-01-17T16:08:54.491Z,71.07
2023-01-17T16:13:56.139Z,71.72
2023-01-17T16:19:00.686Z,71.67
2023-01-17T16:24:03.126Z,71.45
2023-01-17T16:29:04.820Z,72.42
2023-01-17T16:34:14.631Z,73.45
2023-01-17T16:39:16.336Z,75.17
2023-01-17T16:44:18.153Z,74.43
2023-01-17T16:49:19.851Z,73.89
2023-01-17T16:54:21.528Z,74.10
2023-01-17T16:59:23.296Z,73.85
2023-01-17T17:04:26.055Z,73.97
2023-01-17T17:09:27.782Z,73.79
2023-01-17T17:14:29.725Z,73.66
2023-01-17T17:19:31.375Z,74.01
2023-01-17T17:24:33.495Z,74.08
2023-01-17T17:29:36.140Z,73.43
2023-01-17T17:34:38.763Z,73.52
2023-01-17T17:39:40.462Z,73.95
2023-01-17T17:44:42.009Z,73.85
2023-01-17T17:49:43.778Z,73.87
2023-01-17T17:54:45.506Z,73.68
2023-01-17T17:59:47.280Z,73.67
2023-01-17T18:04:49.185Z,73.30
2023-01-17T18:09:59.835Z,73.12
2023-01-17T18:15:04.600Z,73.45
2023-01-17T18:20:07.752Z,73.04
2023-01-17T18:25:11.519Z,73.30
2023-01-17T18:30:13.447Z,74.24
2023-01-17T18:35:15.277Z,74.38
2023-01-17T18:40:17.285Z,74.20
2023-01-17T18:45:19.121Z,74.06
2023-01-17T18:50:20.943Z,74.83
2023-01-17T18:55:23.056Z,75.42
2023-01-17T19:00:24.877Z,75.80
2023-01-17T19:05:26.670Z,75.87
2023-01-17T19:10:28.413Z,75.92
2023-01-17T19:15:30.973Z,75.75
2023-01-17T19:24:10.534Z,75.36
2023-01-17T19:29:12.420Z,75.41
2023-01-17T19:34:15.031Z,76.02
2023-01-17T19:39:16.693Z,76.65
2023-01-17T19:44:18.273Z,76.86
2023-01-17T19:49:24.769Z,77.62
2023-01-17T19:54:26.503Z,77.74
2023-01-17T19:59:28.187Z,77.70
2023-01-17T20:04:30.083Z,77.91
2023-01-17T20:09:33.495Z,77.61
2023-01-17T20:14:35.381Z,77.34
2023-01-17T20:19:37.061Z,77.51
2023-01-17T20:24:38.928Z,77.75
2023-01-17T20:29:40.654Z,77.21
2023-01-17T20:34:44.680Z,77.05
2023-01-17T20:39:48.239Z,76.92
2023-01-17T20:44:50.888Z,76.84
2023-01-17T20:49:52.916Z,76.85
2023-01-17T20:54:55.514Z,76.67
2023-01-17T20:59:57.223Z,76.98
2023-01-17T21:05:01.470Z,76.79
2023-01-17T21:10:03.778Z,76.53
2023-01-17T21:15:06.102Z,76.67
2023-01-17T21:20:08.926Z,76.35
2023-01-17T21:25:24.492Z,76.56
2023-01-17T21:30:26.136Z,76.79
2023-01-17T21:35:30.050Z,76.73
2023-01-17T21:40:33.034Z,76.59
2023-01-17T21:45:38.599Z,76.18
2023-01-17T21:50:40.320Z,75.96
2023-01-17T21:56:00.745Z,76.13
2023-01-17T22:01:16.051Z,75.51
2023-01-17T22:06:19.721Z,75.02
2023-01-17T22:11:24.357Z,75.22
2023-01-17T22:16:26.780Z,74.80
2023-01-17T22:21:29.124Z,75.07
2023-01-17T22:26:31.460Z,75.12
2023-01-17T22:31:33.793Z,74.72
2023-01-17T22:36:35.618Z,74.74
2023-01-17T22:41:38.442Z,74.44
2023-01-17T22:46:41.461Z,74.32
2023-01-17T22:51:43.169Z,74.16
2023-01-17T22:56:44.752Z,73.55
2023-01-17T23:01:46.362Z,73.73
2023-01-17T23:06:48.118Z,74.07
2023-01-17T23:11:52.733Z,73.90
2023-01-17T23:17:20.275Z,74.44
2023-01-17T23:22:27.541Z,74.52
2023-01-17T23:27:47.796Z,74.82
2023-01-17T23:32:52.618Z,74.69
2023-01-17T23:38:14.504Z,74.35
2023-01-17T23:43:25.333Z,74.10
2023-01-17T23:48:29.769Z,73.99
2023-01-17T23:53:31.555Z,74.36
2023-01-17T23:58:33.957Z,74.28
